sensor_id;sensor_type;location;lat;lon;timestamp;P1;durP1;ratioP1;P2;durP2;ratioP2
28003;SDS011;15330;51.234;6.754;2023-04-03T00:01:53;14.75;;;8.60;;
28003;SDS011;15330;51.234;6.754;2023-04-03T00:04:18;12.50;;;8.32;;
28003;SDS011;15330;51.234;6.754;2023-04-03T00:06:43;10.05;;;7.60;;
28003;SDS011;15330;51.234;6.754;2023-04-03T00:09:08;14.52;;;8.30;;
28003;SDS011;15330;51.234;6.754;2023-04-03T00:11:34;14.30;;;8.35;;
28003;SDS011;15330;51.234;6.754;2023-04-03T00:13:59;14.65;;;8.52;;
28003;SDS011;15330;51.234;6.754;2023-04-03T00:16:25;9.52;;;7.53;;
28003;SDS011;15330;51.234;6.754;2023-04-03T00:18:50;13.43;;;8.18;;
28003;SDS011;15330;51.234;6.754;2023-04-03T00:21:15;14.70;;;8.63;;
28003;SDS011;15330;51.234;6.754;2023-04-03T00:23:41;12.02;;;7.45;;
28003;SDS011;15330;51.234;6.754;2023-04-03T00:26:07;10.98;;;6.85;;
28003;SDS011;15330;51.234;6.754;2023-04-03T00:28:32;13.75;;;7.72;;
28003;SDS011;15330;51.234;6.754;2023-04-03T00:30:57;14.65;;;7.57;;
28003;SDS011;15330;51.234;6.754;2023-04-03T00:33:23;10.75;;;7.60;;
28003;SDS011;15330;51.234;6.754;2023-04-03T00:35:49;11.23;;;7.63;;
28003;SDS011;15330;51.234;6.754;2023-04-03T00:38:15;23.65;;;13.98;;
28003;SDS011;15330;51.234;6.754;2023-04-03T00:40:42;16.33;;;9.55;;
28003;SDS011;15330;51.234;6.754;2023-04-03T00:43:12;15.15;;;9.93;;
28003;SDS011;15330;51.234;6.754;2023-04-03T00:45:40;17.73;;;9.45;;
28003;SDS011;15330;51.234;6.754;2023-04-03T00:48:10;18.25;;;9.95;;
28003;SDS011;15330;51.234;6.754;2023-04-03T00:50:39;18.85;;;9.77;;
28003;SDS011;15330;51.234;6.754;2023-04-03T00:53:07;21.10;;;9.73;;
28003;SDS011;15330;51.234;6.754;2023-04-03T00:55:37;10.70;;;7.47;;
28003;SDS011;15330;51.234;6.754;2023-04-03T00:58:04;13.98;;;7.50;;
28003;SDS011;15330;51.234;6.754;2023-04-03T01:00:32;10.98;;;6.72;;
28003;SDS011;15330;51.234;6.754;2023-04-03T01:02:59;16.80;;;8.30;;
28003;SDS011;15330;51.234;6.754;2023-04-03T01:05:24;11.90;;;7.63;;
28003;SDS011;15330;51.234;6.754;2023-04-03T01:07:50;13.68;;;8.65;;
28003;SDS011;15330;51.234;6.754;2023-04-03T01:10:17;17.38;;;9.88;;
28003;SDS011;15330;51.234;6.754;2023-04-03T01:12:46;15.50;;;10.18;;
28003;SDS011;15330;51.234;6.754;2023-04-03T01:15:20;15.38;;;10.23;;
28003;SDS011;15330;51.234;6.754;2023-04-03T01:17:55;16.27;;;8.95;;
28003;SDS011;15330;51.234;6.754;2023-04-03T01:25:39;15.48;;;8.73;;
28003;SDS011;15330;51.234;6.754;2023-04-03T01:30:48;11.93;;;7.55;;
28003;SDS011;15330;51.234;6.754;2023-04-03T01:33:21;16.45;;;9.77;;
28003;SDS011;15330;51.234;6.754;2023-04-03T01:35:47;17.95;;;9.02;;
28003;SDS011;15330;51.234;6.754;2023-04-03T01:38:12;11.43;;;6.97;;
28003;SDS011;15330;51.234;6.754;2023-04-03T01:40:37;15.63;;;8.15;;
28003;SDS011;15330;51.234;6.754;2023-04-03T01:43:03;12.45;;;7.88;;
28003;SDS011;15330;51.234;6.754;2023-04-03T01:45:28;12.07;;;7.72;;
28003;SDS011;15330;51.234;6.754;2023-04-03T01:47:54;15.95;;;9.23;;
28003;SDS011;15330;51.234;6.754;2023-04-03T01:50:19;13.68;;;7.70;;
28003;SDS011;15330;51.234;6.754;2023-04-03T01:52:44;12.32;;;7.13;;
28003;SDS011;15330;51.234;6.754;2023-04-03T01:55:10;11.77;;;7.63;;
28003;SDS011;15330;51.234;6.754;2023-04-03T01:57:35;13.27;;;6.68;;
28003;SDS011;15330;51.234;6.754;2023-04-03T02:00:00;14.70;;;7.72;;
28003;SDS011;15330;51.234;6.754;2023-04-03T02:02:26;13.40;;;7.25;;
28003;SDS011;15330;51.234;6.754;2023-04-03T02:04:51;8.05;;;5.93;;
28003;SDS011;15330;51.234;6.754;2023-04-03T02:07:17;12.98;;;7.15;;
28003;SDS011;15330;51.234;6.754;2023-04-03T02:09:42;12.90;;;6.15;;
28003;SDS011;15330;51.234;6.754;2023-04-03T02:12:07;11.13;;;6.10;;
28003;SDS011;15330;51.234;6.754;2023-04-03T02:14:33;12.38;;;6.55;;
28003;SDS011;15330;51.234;6.754;2023-04-03T02:16:59;10.43;;;6.25;;
28003;SDS011;15330;51.234;6.754;2023-04-03T02:19:26;10.95;;;6.55;;
28003;SDS011;15330;51.234;6.754;2023-04-03T02:21:51;8.68;;;6.25;;
28003;SDS011;15330;51.234;6.754;2023-04-03T02:24:16;9.60;;;6.53;;
28003;SDS011;15330;51.234;6.754;2023-04-03T02:26:42;12.75;;;7.25;;
28003;SDS011;15330;51.234;6.754;2023-04-03T02:29:07;14.80;;;7.85;;
28003;SDS011;15330;51.234;6.754;2023-04-03T02:31:32;12.75;;;7.72;;
28003;SDS011;15330;51.234;6.754;2023-04-03T02:33:58;11.50;;;7.35;;
28003;SDS011;15330;51.234;6.754;2023-04-03T02:36:23;13.70;;;8.75;;
28003;SDS011;15330;51.234;6.754;2023-04-03T02:38:48;14.10;;;8.80;;
28003;SDS011;15330;51.234;6.754;2023-04-03T02:41:14;18.33;;;9.35;;
28003;SDS011;15330;51.234;6.754;2023-04-03T02:43:39;17.42;;;10.95;;
28003;SDS011;15330;51.234;6.754;2023-04-03T02:46:05;15.68;;;8.95;;
28003;SDS011;15330;51.234;6.754;2023-04-03T02:48:30;19.63;;;10.65;;
28003;SDS011;15330;51.234;6.754;2023-04-03T02:50:56;18.02;;;10.75;;
28003;SDS011;15330;51.234;6.754;2023-04-03T02:53:22;16.70;;;8.98;;
28003;SDS011;15330;51.234;6.754;2023-04-03T02:55:48;15.70;;;9.57;;
28003;SDS011;15330;51.234;6.754;2023-04-03T02:58:13;18.27;;;8.85;;
28003;SDS011;15330;51.234;6.754;2023-04-03T03:00:39;16.65;;;9.27;;
28003;SDS011;15330;51.234;6.754;2023-04-03T03:03:04;15.43;;;9.68;;
28003;SDS011;15330;51.234;6.754;2023-04-03T03:05:30;14.55;;;7.95;;
28003;SDS011;15330;51.234;6.754;2023-04-03T03:07:56;15.43;;;7.97;;
28003;SDS011;15330;51.234;6.754;2023-04-03T03:10:21;17.83;;;10.15;;
28003;SDS011;15330;51.234;6.754;2023-04-03T03:12:47;13.93;;;7.82;;
28003;SDS011;15330;51.234;6.754;2023-04-03T03:15:13;14.27;;;7.35;;
28003;SDS011;15330;51.234;6.754;2023-04-03T03:17:38;16.90;;;9.68;;
28003;SDS011;15330;51.234;6.754;2023-04-03T03:20:04;11.40;;;7.80;;
28003;SDS011;15330;51.234;6.754;2023-04-03T03:22:30;15.07;;;8.13;;
28003;SDS011;15330;51.234;6.754;2023-04-03T03:24:56;9.95;;;7.15;;
28003;SDS011;15330;51.234;6.754;2023-04-03T03:27:22;10.93;;;6.68;;
28003;SDS011;15330;51.234;6.754;2023-04-03T03:29:47;12.88;;;6.88;;
28003;SDS011;15330;51.234;6.754;2023-04-03T03:32:12;14.82;;;8.38;;
28003;SDS011;15330;51.234;6.754;2023-04-03T03:34:38;13.48;;;6.85;;
28003;SDS011;15330;51.234;6.754;2023-04-03T03:37:03;13.75;;;7.07;;
28003;SDS011;15330;51.234;6.754;2023-04-03T03:39:29;11.32;;;6.40;;
28003;SDS011;15330;51.234;6.754;2023-04-03T03:41:55;10.35;;;6.50;;
28003;SDS011;15330;51.234;6.754;2023-04-03T03:44:20;10.93;;;6.40;;
28003;SDS011;15330;51.234;6.754;2023-04-03T03:46:46;12.05;;;6.47;;
28003;SDS011;15330;51.234;6.754;2023-04-03T03:49:11;9.43;;;5.82;;
28003;SDS011;15330;51.234;6.754;2023-04-03T03:51:37;12.60;;;7.43;;
28003;SDS011;15330;51.234;6.754;2023-04-03T03:54:03;14.43;;;5.93;;
28003;SDS011;15330;51.234;6.754;2023-04-03T03:56:29;8.85;;;5.47;;
28003;SDS011;15330;51.234;6.754;2023-04-03T03:58:55;12.55;;;6.20;;
28003;SDS011;15330;51.234;6.754;2023-04-03T04:01:21;11.68;;;6.00;;
28003;SDS011;15330;51.234;6.754;2023-04-03T04:03:47;12.20;;;5.70;;
28003;SDS011;15330;51.234;6.754;2023-04-03T04:06:13;12.18;;;5.43;;
28003;SDS011;15330;51.234;6.754;2023-04-03T04:08:38;11.27;;;5.60;;
28003;SDS011;15330;51.234;6.754;2023-04-03T04:11:03;8.77;;;5.13;;
28003;SDS011;15330;51.234;6.754;2023-04-03T04:13:29;12.57;;;5.00;;
28003;SDS011;15330;51.234;6.754;2023-04-03T04:15:54;11.25;;;4.90;;
28003;SDS011;15330;51.234;6.754;2023-04-03T04:18:20;9.40;;;4.80;;
28003;SDS011;15330;51.234;6.754;2023-04-03T04:20:46;14.20;;;5.43;;
28003;SDS011;15330;51.234;6.754;2023-04-03T04:23:11;8.63;;;5.20;;
28003;SDS011;15330;51.234;6.754;2023-04-03T04:25:37;9.65;;;4.93;;
28003;SDS011;15330;51.234;6.754;2023-04-03T04:28:02;10.68;;;4.72;;
28003;SDS011;15330;51.234;6.754;2023-04-03T04:30:28;9.32;;;4.90;;
28003;SDS011;15330;51.234;6.754;2023-04-03T04:32:53;7.28;;;4.75;;
28003;SDS011;15330;51.234;6.754;2023-04-03T04:35:19;10.60;;;4.80;;
28003;SDS011;15330;51.234;6.754;2023-04-03T04:37:44;11.85;;;4.88;;
28003;SDS011;15330;51.234;6.754;2023-04-03T04:40:10;10.77;;;4.90;;
28003;SDS011;15330;51.234;6.754;2023-04-03T04:42:35;10.57;;;4.95;;
28003;SDS011;15330;51.234;6.754;2023-04-03T04:45:01;10.05;;;5.18;;
28003;SDS011;15330;51.234;6.754;2023-04-03T04:47:28;8.45;;;4.55;;
28003;SDS011;15330;51.234;6.754;2023-04-03T04:49:54;9.63;;;4.60;;
28003;SDS011;15330;51.234;6.754;2023-04-03T04:52:20;15.45;;;4.90;;
28003;SDS011;15330;51.234;6.754;2023-04-03T04:54:45;9.05;;;4.82;;
28003;SDS011;15330;51.234;6.754;2023-04-03T04:57:11;11.95;;;4.78;;
28003;SDS011;15330;51.234;6.754;2023-04-03T04:59:36;7.03;;;4.30;;
28003;SDS011;15330;51.234;6.754;2023-04-03T05:02:01;13.25;;;4.80;;
28003;SDS011;15330;51.234;6.754;2023-04-03T05:04:27;8.98;;;5.10;;
28003;SDS011;15330;51.234;6.754;2023-04-03T05:06:52;10.35;;;5.20;;
28003;SDS011;15330;51.234;6.754;2023-04-03T05:09:18;6.45;;;3.80;;
28003;SDS011;15330;51.234;6.754;2023-04-03T05:11:45;10.85;;;4.50;;
28003;SDS011;15330;51.234;6.754;2023-04-03T05:14:10;8.00;;;5.13;;
28003;SDS011;15330;51.234;6.754;2023-04-03T05:16:36;7.55;;;4.07;;
28003;SDS011;15330;51.234;6.754;2023-04-03T05:19:02;24.50;;;10.38;;
28003;SDS011;15330;51.234;6.754;2023-04-03T05:21:28;13.98;;;4.85;;
28003;SDS011;15330;51.234;6.754;2023-04-03T05:23:57;7.10;;;3.72;;
28003;SDS011;15330;51.234;6.754;2023-04-03T05:26:23;5.82;;;3.45;;
28003;SDS011;15330;51.234;6.754;2023-04-03T05:28:50;9.80;;;3.75;;
28003;SDS011;15330;51.234;6.754;2023-04-03T05:31:15;9.48;;;4.07;;
28003;SDS011;15330;51.234;6.754;2023-04-03T05:33:41;12.60;;;5.00;;
28003;SDS011;15330;51.234;6.754;2023-04-03T05:36:06;9.38;;;3.42;;
28003;SDS011;15330;51.234;6.754;2023-04-03T05:38:32;8.73;;;4.03;;
28003;SDS011;15330;51.234;6.754;2023-04-03T05:40:57;7.35;;;3.83;;
28003;SDS011;15330;51.234;6.754;2023-04-03T05:43:23;8.30;;;3.55;;
28003;SDS011;15330;51.234;6.754;2023-04-03T05:45:49;6.63;;;3.50;;
28003;SDS011;15330;51.234;6.754;2023-04-03T05:48:14;5.63;;;3.58;;
28003;SDS011;15330;51.234;6.754;2023-04-03T05:50:39;12.05;;;3.47;;
28003;SDS011;15330;51.234;6.754;2023-04-03T05:53:07;10.35;;;3.40;;
28003;SDS011;15330;51.234;6.754;2023-04-03T05:55:42;7.80;;;3.75;;
28003;SDS011;15330;51.234;6.754;2023-04-03T05:58:08;19.48;;;8.18;;
28003;SDS011;15330;51.234;6.754;2023-04-03T06:00:33;12.18;;;4.90;;
28003;SDS011;15330;51.234;6.754;2023-04-03T06:02:59;8.02;;;3.90;;
28003;SDS011;15330;51.234;6.754;2023-04-03T06:05:24;10.95;;;4.38;;
28003;SDS011;15330;51.234;6.754;2023-04-03T06:07:49;8.90;;;3.47;;
28003;SDS011;15330;51.234;6.754;2023-04-03T06:10:15;11.18;;;3.55;;
28003;SDS011;15330;51.234;6.754;2023-04-03T06:12:41;8.90;;;4.90;;
28003;SDS011;15330;51.234;6.754;2023-04-03T06:15:07;8.68;;;3.42;;
28003;SDS011;15330;51.234;6.754;2023-04-03T06:17:34;8.63;;;3.55;;
28003;SDS011;15330;51.234;6.754;2023-04-03T06:20:01;10.93;;;5.50;;
28003;SDS011;15330;51.234;6.754;2023-04-03T06:22:26;8.00;;;5.55;;
28003;SDS011;15330;51.234;6.754;2023-04-03T06:24:52;7.70;;;3.30;;
28003;SDS011;15330;51.234;6.754;2023-04-03T06:27:18;7.43;;;4.25;;
28003;SDS011;15330;51.234;6.754;2023-04-03T06:29:43;9.52;;;3.47;;
28003;SDS011;15330;51.234;6.754;2023-04-03T06:32:10;8.68;;;3.25;;
28003;SDS011;15330;51.234;6.754;2023-04-03T06:34:35;11.48;;;4.93;;
28003;SDS011;15330;51.234;6.754;2023-04-03T06:37:01;9.55;;;3.30;;
28003;SDS011;15330;51.234;6.754;2023-04-03T06:39:27;10.20;;;3.88;;
28003;SDS011;15330;51.234;6.754;2023-04-03T06:41:53;9.00;;;3.95;;
28003;SDS011;15330;51.234;6.754;2023-04-03T06:44:18;15.85;;;7.88;;
28003;SDS011;15330;51.234;6.754;2023-04-03T06:46:44;6.47;;;3.03;;
28003;SDS011;15330;51.234;6.754;2023-04-03T06:49:11;8.88;;;3.70;;
28003;SDS011;15330;51.234;6.754;2023-04-03T06:51:37;9.02;;;4.15;;
28003;SDS011;15330;51.234;6.754;2023-04-03T06:54:03;12.10;;;5.50;;
28003;SDS011;15330;51.234;6.754;2023-04-03T06:56:30;8.88;;;4.05;;
28003;SDS011;15330;51.234;6.754;2023-04-03T06:58:56;9.25;;;3.58;;
28003;SDS011;15330;51.234;6.754;2023-04-03T07:01:26;7.47;;;4.32;;
28003;SDS011;15330;51.234;6.754;2023-04-03T07:03:53;6.88;;;3.40;;
28003;SDS011;15330;51.234;6.754;2023-04-03T07:06:20;7.90;;;3.50;;
28003;SDS011;15330;51.234;6.754;2023-04-03T07:08:46;10.93;;;3.72;;
28003;SDS011;15330;51.234;6.754;2023-04-03T07:11:13;6.78;;;2.70;;
28003;SDS011;15330;51.234;6.754;2023-04-03T07:13:39;10.50;;;3.70;;
28003;SDS011;15330;51.234;6.754;2023-04-03T07:16:05;8.98;;;3.80;;
28003;SDS011;15330;51.234;6.754;2023-04-03T07:18:32;7.00;;;3.42;;
28003;SDS011;15330;51.234;6.754;2023-04-03T07:20:58;11.13;;;4.50;;
28003;SDS011;15330;51.234;6.754;2023-04-03T07:23:24;8.20;;;3.17;;
28003;SDS011;15330;51.234;6.754;2023-04-03T07:25:50;6.38;;;2.83;;
28003;SDS011;15330;51.234;6.754;2023-04-03T07:28:16;14.18;;;6.72;;
28003;SDS011;15330;51.234;6.754;2023-04-03T07:30:43;8.32;;;2.72;;
28003;SDS011;15330;51.234;6.754;2023-04-03T07:33:10;7.53;;;2.88;;
28003;SDS011;15330;51.234;6.754;2023-04-03T07:35:36;9.77;;;4.18;;
28003;SDS011;15330;51.234;6.754;2023-04-03T07:38:02;12.90;;;5.00;;
28003;SDS011;15330;51.234;6.754;2023-04-03T07:40:27;10.32;;;3.95;;
28003;SDS011;15330;51.234;6.754;2023-04-03T07:42:53;7.20;;;3.03;;
28003;SDS011;15330;51.234;6.754;2023-04-03T07:45:18;6.25;;;2.42;;
28003;SDS011;15330;51.234;6.754;2023-04-03T07:47:44;9.20;;;3.00;;
28003;SDS011;15330;51.234;6.754;2023-04-03T07:50:09;6.97;;;2.53;;
28003;SDS011;15330;51.234;6.754;2023-04-03T07:52:35;6.10;;;2.72;;
28003;SDS011;15330;51.234;6.754;2023-04-03T07:55:00;8.48;;;3.00;;
28003;SDS011;15330;51.234;6.754;2023-04-03T07:57:26;7.40;;;2.90;;
28003;SDS011;15330;51.234;6.754;2023-04-03T07:59:51;9.35;;;2.40;;
28003;SDS011;15330;51.234;6.754;2023-04-03T08:02:16;5.72;;;2.40;;
28003;SDS011;15330;51.234;6.754;2023-04-03T08:04:42;6.15;;;2.03;;
28003;SDS011;15330;51.234;6.754;2023-04-03T08:07:07;7.15;;;2.65;;
28003;SDS011;15330;51.234;6.754;2023-04-03T08:09:32;5.25;;;2.25;;
28003;SDS011;15330;51.234;6.754;2023-04-03T08:11:58;6.57;;;2.50;;
28003;SDS011;15330;51.234;6.754;2023-04-03T08:14:24;4.50;;;2.20;;
28003;SDS011;15330;51.234;6.754;2023-04-03T08:16:49;5.22;;;2.22;;
28003;SDS011;15330;51.234;6.754;2023-04-03T08:19:15;5.80;;;2.13;;
28003;SDS011;15330;51.234;6.754;2023-04-03T08:21:42;6.72;;;2.50;;
28003;SDS011;15330;51.234;6.754;2023-04-03T08:24:09;4.53;;;2.10;;
28003;SDS011;15330;51.234;6.754;2023-04-03T08:26:35;8.68;;;2.33;;
28003;SDS011;15330;51.234;6.754;2023-04-03T08:29:01;5.22;;;2.35;;
28003;SDS011;15330;51.234;6.754;2023-04-03T08:31:26;6.93;;;2.10;;
28003;SDS011;15330;51.234;6.754;2023-04-03T08:33:52;4.13;;;2.10;;
28003;SDS011;15330;51.234;6.754;2023-04-03T08:36:22;3.20;;;2.08;;
28003;SDS011;15330;51.234;6.754;2023-04-03T08:38:50;4.80;;;1.90;;
28003;SDS011;15330;51.234;6.754;2023-04-03T08:52:12;5.78;;;1.63;;
28003;SDS011;15330;51.234;6.754;2023-04-03T08:57:18;3.70;;;2.08;;
28003;SDS011;15330;51.234;6.754;2023-04-03T08:59:51;3.20;;;1.83;;
28003;SDS011;15330;51.234;6.754;2023-04-03T09:03:02;3.38;;;1.77;;
28003;SDS011;15330;51.234;6.754;2023-04-03T09:05:11;4.60;;;2.15;;
28003;SDS011;15330;51.234;6.754;2023-04-03T09:07:42;4.88;;;1.65;;
28003;SDS011;15330;51.234;6.754;2023-04-03T09:12:41;2.80;;;1.52;;
28003;SDS011;15330;51.234;6.754;2023-04-03T09:23:12;4.45;;;1.80;;
28003;SDS011;15330;51.234;6.754;2023-04-03T09:26:04;2.85;;;1.60;;
28003;SDS011;15330;51.234;6.754;2023-04-03T09:28:35;5.35;;;2.00;;
28003;SDS011;15330;51.234;6.754;2023-04-03T09:31:13;4.97;;;1.88;;
28003;SDS011;15330;51.234;6.754;2023-04-03T09:33:43;2.83;;;1.95;;
28003;SDS011;15330;51.234;6.754;2023-04-03T09:36:10;4.25;;;1.88;;
28003;SDS011;15330;51.234;6.754;2023-04-03T09:38:36;5.40;;;2.38;;
28003;SDS011;15330;51.234;6.754;2023-04-03T09:43:34;4.07;;;1.92;;
28003;SDS011;15330;51.234;6.754;2023-04-03T09:48:57;3.08;;;1.73;;
28003;SDS011;15330;51.234;6.754;2023-04-03T09:51:28;3.80;;;1.80;;
28003;SDS011;15330;51.234;6.754;2023-04-03T09:53:54;5.00;;;2.17;;
28003;SDS011;15330;51.234;6.754;2023-04-03T09:56:22;4.72;;;2.85;;
28003;SDS011;15330;51.234;6.754;2023-04-03T09:59:14;5.15;;;1.90;;
28003;SDS011;15330;51.234;6.754;2023-04-03T10:01:42;4.30;;;1.70;;
28003;SDS011;15330;51.234;6.754;2023-04-03T10:04:21;3.45;;;2.10;;
28003;SDS011;15330;51.234;6.754;2023-04-03T10:06:52;3.10;;;2.08;;
28003;SDS011;15330;51.234;6.754;2023-04-03T10:09:26;4.20;;;1.90;;
28003;SDS011;15330;51.234;6.754;2023-04-03T10:14:33;3.53;;;1.92;;
28003;SDS011;15330;51.234;6.754;2023-04-03T10:19:46;4.30;;;2.08;;
28003;SDS011;15330;51.234;6.754;2023-04-03T10:28:01;4.28;;;2.38;;
28003;SDS011;15330;51.234;6.754;2023-04-03T10:36:23;5.38;;;2.85;;
28003;SDS011;15330;51.234;6.754;2023-04-03T10:42:28;4.70;;;1.88;;
28003;SDS011;15330;51.234;6.754;2023-04-03T10:50:52;2.67;;;1.83;;
28003;SDS011;15330;51.234;6.754;2023-04-03T10:53:36;2.63;;;1.85;;
28003;SDS011;15330;51.234;6.754;2023-04-03T10:59:12;4.88;;;2.42;;
28003;SDS011;15330;51.234;6.754;2023-04-03T11:02:00;5.13;;;1.75;;
28003;SDS011;15330;51.234;6.754;2023-04-03T11:04:31;8.02;;;3.50;;
28003;SDS011;15330;51.234;6.754;2023-04-03T11:07:12;4.53;;;2.05;;
28003;SDS011;15330;51.234;6.754;2023-04-03T11:09:41;4.95;;;2.00;;
28003;SDS011;15330;51.234;6.754;2023-04-03T11:14:37;4.40;;;1.60;;
28003;SDS011;15330;51.234;6.754;2023-04-03T11:19:54;7.22;;;2.08;;
28003;SDS011;15330;51.234;6.754;2023-04-03T11:22:33;5.15;;;1.70;;
28003;SDS011;15330;51.234;6.754;2023-04-03T11:27:38;4.88;;;1.83;;
28003;SDS011;15330;51.234;6.754;2023-04-03T11:30:11;4.63;;;1.38;;
28003;SDS011;15330;51.234;6.754;2023-04-03T11:35:42;3.50;;;1.50;;
28003;SDS011;15330;51.234;6.754;2023-04-03T11:38:10;3.97;;;1.25;;
28003;SDS011;15330;51.234;6.754;2023-04-03T11:40:43;2.30;;;1.13;;
28003;SDS011;15330;51.234;6.754;2023-04-03T11:43:29;3.88;;;1.55;;
28003;SDS011;15330;51.234;6.754;2023-04-03T11:50:53;2.20;;;1.17;;
28003;SDS011;15330;51.234;6.754;2023-04-03T11:58:31;4.65;;;1.52;;
28003;SDS011;15330;51.234;6.754;2023-04-03T12:03:56;3.50;;;1.70;;
28003;SDS011;15330;51.234;6.754;2023-04-03T12:08:58;3.28;;;1.45;;
28003;SDS011;15330;51.234;6.754;2023-04-03T12:11:30;5.15;;;1.65;;
28003;SDS011;15330;51.234;6.754;2023-04-03T12:21:22;3.97;;;1.30;;
28003;SDS011;15330;51.234;6.754;2023-04-03T12:26:40;2.05;;;1.20;;
28003;SDS011;15330;51.234;6.754;2023-04-03T12:34:26;3.08;;;1.65;;
28003;SDS011;15330;51.234;6.754;2023-04-03T12:40:08;3.47;;;1.27;;
28003;SDS011;15330;51.234;6.754;2023-04-03T12:47:51;3.03;;;1.70;;
28003;SDS011;15330;51.234;6.754;2023-04-03T12:52:51;3.42;;;1.70;;
28003;SDS011;15330;51.234;6.754;2023-04-03T12:55:23;3.50;;;1.77;;
28003;SDS011;15330;51.234;6.754;2023-04-03T12:57:49;3.67;;;1.35;;
28003;SDS011;15330;51.234;6.754;2023-04-03T13:02:58;4.30;;;1.52;;
28003;SDS011;15330;51.234;6.754;2023-04-03T13:05:24;2.42;;;1.35;;
28003;SDS011;15330;51.234;6.754;2023-04-03T13:08:09;1.52;;;1.02;;
28003;SDS011;15330;51.234;6.754;2023-04-03T13:10:43;6.72;;;1.60;;
28003;SDS011;15330;51.234;6.754;2023-04-03T13:13:16;3.70;;;2.10;;
28003;SDS011;15330;51.234;6.754;2023-04-03T13:15:43;3.85;;;1.30;;
28003;SDS011;15330;51.234;6.754;2023-04-03T13:18:21;2.55;;;1.50;;
28003;SDS011;15330;51.234;6.754;2023-04-03T13:20:49;2.83;;;1.55;;
28003;SDS011;15330;51.234;6.754;2023-04-03T13:23:20;4.15;;;1.40;;
28003;SDS011;15330;51.234;6.754;2023-04-03T13:25:48;4.65;;;1.88;;
28003;SDS011;15330;51.234;6.754;2023-04-03T13:28:15;2.22;;;1.20;;
28003;SDS011;15330;51.234;6.754;2023-04-03T13:31:01;2.85;;;1.30;;
28003;SDS011;15330;51.234;6.754;2023-04-03T13:33:31;6.68;;;2.00;;
28003;SDS011;15330;51.234;6.754;2023-04-03T13:36:03;4.53;;;1.73;;
28003;SDS011;15330;51.234;6.754;2023-04-03T13:41:40;2.20;;;1.50;;
28003;SDS011;15330;51.234;6.754;2023-04-03T13:46:42;7.40;;;1.90;;
28003;SDS011;15330;51.234;6.754;2023-04-03T13:55:24;5.18;;;1.65;;
28003;SDS011;15330;51.234;6.754;2023-04-03T14:03:00;4.93;;;1.73;;
28003;SDS011;15330;51.234;6.754;2023-04-03T14:05:26;4.25;;;1.80;;
28003;SDS011;15330;51.234;6.754;2023-04-03T14:07:54;5.30;;;1.58;;
28003;SDS011;15330;51.234;6.754;2023-04-03T14:10:20;4.13;;;1.65;;
28003;SDS011;15330;51.234;6.754;2023-04-03T14:12:46;3.53;;;1.63;;
28003;SDS011;15330;51.234;6.754;2023-04-03T14:15:16;5.72;;;1.80;;
28003;SDS011;15330;51.234;6.754;2023-04-03T14:17:44;6.43;;;1.60;;
28003;SDS011;15330;51.234;6.754;2023-04-03T14:20:14;4.50;;;1.75;;
28003;SDS011;15330;51.234;6.754;2023-04-03T14:22:41;4.43;;;1.83;;
28003;SDS011;15330;51.234;6.754;2023-04-03T14:25:06;2.50;;;1.60;;
28003;SDS011;15330;51.234;6.754;2023-04-03T14:27:36;3.67;;;1.73;;
28003;SDS011;15330;51.234;6.754;2023-04-03T14:30:09;3.22;;;1.60;;
28003;SDS011;15330;51.234;6.754;2023-04-03T14:32:38;3.55;;;1.95;;
28003;SDS011;15330;51.234;6.754;2023-04-03T14:35:04;3.65;;;1.35;;
28003;SDS011;15330;51.234;6.754;2023-04-03T14:37:30;3.65;;;2.22;;
28003;SDS011;15330;51.234;6.754;2023-04-03T14:39:57;3.72;;;1.75;;
28003;SDS011;15330;51.234;6.754;2023-04-03T14:42:30;4.15;;;1.65;;
28003;SDS011;15330;51.234;6.754;2023-04-03T14:44:58;3.63;;;1.50;;
28003;SDS011;15330;51.234;6.754;2023-04-03T14:47:27;6.03;;;1.65;;
28003;SDS011;15330;51.234;6.754;2023-04-03T14:49:54;6.00;;;1.38;;
28003;SDS011;15330;51.234;6.754;2023-04-03T14:54:53;5.28;;;1.70;;
28003;SDS011;15330;51.234;6.754;2023-04-03T14:57:19;3.13;;;1.50;;
28003;SDS011;15330;51.234;6.754;2023-04-03T14:59:49;2.88;;;1.30;;
28003;SDS011;15330;51.234;6.754;2023-04-03T15:02:31;3.53;;;1.60;;
28003;SDS011;15330;51.234;6.754;2023-04-03T15:04:58;2.58;;;1.40;;
28003;SDS011;15330;51.234;6.754;2023-04-03T15:07:25;4.95;;;1.52;;
28003;SDS011;15330;51.234;6.754;2023-04-03T15:09:53;4.55;;;1.30;;
28003;SDS011;15330;51.234;6.754;2023-04-03T15:12:21;4.75;;;1.85;;
28003;SDS011;15330;51.234;6.754;2023-04-03T15:14:48;3.85;;;1.73;;
28003;SDS011;15330;51.234;6.754;2023-04-03T15:17:14;6.65;;;1.55;;
28003;SDS011;15330;51.234;6.754;2023-04-03T15:19:42;9.68;;;2.60;;
28003;SDS011;15330;51.234;6.754;2023-04-03T15:22:18;3.65;;;1.52;;
28003;SDS011;15330;51.234;6.754;2023-04-03T15:24:44;5.75;;;1.83;;
28003;SDS011;15330;51.234;6.754;2023-04-03T15:27:11;4.95;;;2.10;;
28003;SDS011;15330;51.234;6.754;2023-04-03T15:29:38;6.95;;;2.60;;
28003;SDS011;15330;51.234;6.754;2023-04-03T15:32:05;6.88;;;2.22;;
28003;SDS011;15330;51.234;6.754;2023-04-03T15:34:31;4.82;;;1.58;;
28003;SDS011;15330;51.234;6.754;2023-04-03T15:36:56;7.88;;;2.90;;
28003;SDS011;15330;51.234;6.754;2023-04-03T15:39:22;2.55;;;1.50;;
28003;SDS011;15330;51.234;6.754;2023-04-03T15:41:48;4.40;;;1.92;;
28003;SDS011;15330;51.234;6.754;2023-04-03T15:44:14;9.25;;;3.47;;
28003;SDS011;15330;51.234;6.754;2023-04-03T15:46:42;3.83;;;1.60;;
28003;SDS011;15330;51.234;6.754;2023-04-03T15:49:08;8.52;;;2.00;;
28003;SDS011;15330;51.234;6.754;2023-04-03T15:51:33;3.50;;;1.70;;
28003;SDS011;15330;51.234;6.754;2023-04-03T15:54:00;9.80;;;2.60;;
28003;SDS011;15330;51.234;6.754;2023-04-03T15:56:25;4.18;;;1.50;;
28003;SDS011;15330;51.234;6.754;2023-04-03T15:58:50;3.67;;;1.67;;
28003;SDS011;15330;51.234;6.754;2023-04-03T16:01:16;4.70;;;1.30;;
28003;SDS011;15330;51.234;6.754;2023-04-03T16:03:41;5.32;;;1.70;;
28003;SDS011;15330;51.234;6.754;2023-04-03T16:06:14;2.78;;;1.60;;
28003;SDS011;15330;51.234;6.754;2023-04-03T16:08:41;6.35;;;2.75;;
28003;SDS011;15330;51.234;6.754;2023-04-03T16:11:07;4.80;;;1.65;;
28003;SDS011;15330;51.234;6.754;2023-04-03T16:13:33;5.97;;;2.05;;
28003;SDS011;15330;51.234;6.754;2023-04-03T16:15:59;6.13;;;2.30;;
28003;SDS011;15330;51.234;6.754;2023-04-03T16:18:25;4.05;;;1.60;;
28003;SDS011;15330;51.234;6.754;2023-04-03T16:20:51;5.90;;;1.50;;
28003;SDS011;15330;51.234;6.754;2023-04-03T16:23:17;6.03;;;1.70;;
28003;SDS011;15330;51.234;6.754;2023-04-03T16:25:43;7.53;;;1.80;;
28003;SDS011;15330;51.234;6.754;2023-04-03T16:28:11;8.00;;;1.95;;
28003;SDS011;15330;51.234;6.754;2023-04-03T16:30:39;7.13;;;2.67;;
28003;SDS011;15330;51.234;6.754;2023-04-03T16:33:05;5.90;;;1.50;;
28003;SDS011;15330;51.234;6.754;2023-04-03T16:35:31;7.03;;;2.10;;
28003;SDS011;15330;51.234;6.754;2023-04-03T16:37:56;3.95;;;1.80;;
28003;SDS011;15330;51.234;6.754;2023-04-03T16:40:21;5.18;;;2.10;;
28003;SDS011;15330;51.234;6.754;2023-04-03T16:42:47;3.65;;;1.52;;
28003;SDS011;15330;51.234;6.754;2023-04-03T16:45:12;7.45;;;2.20;;
28003;SDS011;15330;51.234;6.754;2023-04-03T16:47:38;4.30;;;1.98;;
28003;SDS011;15330;51.234;6.754;2023-04-03T16:50:03;3.47;;;1.67;;
28003;SDS011;15330;51.234;6.754;2023-04-03T16:52:29;7.38;;;2.08;;
28003;SDS011;15330;51.234;6.754;2023-04-03T16:54:54;4.05;;;1.70;;
28003;SDS011;15330;51.234;6.754;2023-04-03T16:57:20;5.63;;;2.28;;
28003;SDS011;15330;51.234;6.754;2023-04-03T16:59:47;4.82;;;1.90;;
28003;SDS011;15330;51.234;6.754;2023-04-03T17:02:12;4.03;;;1.83;;
28003;SDS011;15330;51.234;6.754;2023-04-03T17:04:38;9.38;;;4.00;;
28003;SDS011;15330;51.234;6.754;2023-04-03T17:07:03;7.72;;;3.00;;